sensor_id;sensor_type;location;lat;lon;timestamp;P1;durP1;ratioP1;P2;durP2;ratioP2
43837;SDS011;65998;46.256;7.534;2023-10-08T07:03:18;1216.17;;;953.80;;
43837;SDS011;65998;46.256;7.534;2023-10-08T07:06:45;1136.90;;;906.10;;
43837;SDS011;65998;46.256;7.534;2023-10-08T07:09:11;1145.95;;;915.17;;
43837;SDS011;65998;46.256;7.534;2023-10-08T07:11:37;1118.73;;;901.13;;
43837;SDS011;65998;46.256;7.534;2023-10-08T07:14:03;1087.93;;;893.97;;
43837;SDS011;65998;46.256;7.534;2023-10-08T07:16:32;1078.97;;;894.15;;
43837;SDS011;65998;46.256;7.534;2023-10-08T07:18:58;1089.47;;;906.20;;
43837;SDS011;65998;46.256;7.534;2023-10-08T07:21:24;1076.18;;;903.42;;
43837;SDS011;65998;46.256;7.534;2023-10-08T07:23:49;901.45;;;664.70;;
43837;SDS011;65998;46.256;7.534;2023-10-08T07:26:15;1288.35;;;991.83;;
43837;SDS011;65998;46.256;7.534;2023-10-08T07:28:41;1138.83;;;923.47;;
43837;SDS011;65998;46.256;7.534;2023-10-08T07:31:13;1114.95;;;919.60;;
43837;SDS011;65998;46.256;7.534;2023-10-08T07:33:39;1085.32;;;911.33;;
43837;SDS011;65998;46.256;7.534;2023-10-08T07:36:05;1076.07;;;907.80;;
43837;SDS011;65998;46.256;7.534;2023-10-08T07:38:30;1066.40;;;904.97;;
43837;SDS011;65998;46.256;7.534;2023-10-08T07:40:56;1049.97;;;903.28;;
43837;SDS011;65998;46.256;7.534;2023-10-08T07:43:22;1053.87;;;905.43;;
43837;SDS011;65998;46.256;7.534;2023-10-08T07:45:47;1057.00;;;908.93;;
43837;SDS011;65998;46.256;7.534;2023-10-08T07:48:13;1050.70;;;907.53;;
43837;SDS011;65998;46.256;7.534;2023-10-08T07:50:45;1041.17;;;901.70;;
43837;SDS011;65998;46.256;7.534;2023-10-08T07:53:11;1026.55;;;897.85;;
43837;SDS011;65998;46.256;7.534;2023-10-08T07:55:37;1015.97;;;896.75;;
43837;SDS011;65998;46.256;7.534;2023-10-08T07:58:03;1001.27;;;885.70;;
43837;SDS011;65998;46.256;7.534;2023-10-08T08:00:29;998.13;;;886.47;;
43837;SDS011;65998;46.256;7.534;2023-10-08T08:02:54;1015.30;;;896.33;;
43837;SDS011;65998;46.256;7.534;2023-10-08T08:05:20;1019.60;;;900.47;;
43837;SDS011;65998;46.256;7.534;2023-10-08T08:07:46;1025.00;;;902.17;;
43837;SDS011;65998;46.256;7.534;2023-10-08T08:10:11;957.13;;;849.40;;
43837;SDS011;65998;46.256;7.534;2023-10-08T08:12:37;930.70;;;820.38;;
43837;SDS011;65998;46.256;7.534;2023-10-08T08:15:03;896.87;;;772.33;;
43837;SDS011;65998;46.256;7.534;2023-10-08T08:17:29;943.17;;;839.55;;
43837;SDS011;65998;46.256;7.534;2023-10-08T08:19:54;1009.50;;;882.87;;
43837;SDS011;65998;46.256;7.534;2023-10-08T08:22:21;1008.23;;;883.77;;
43837;SDS011;65998;46.256;7.534;2023-10-08T08:24:50;1015.72;;;883.88;;
43837;SDS011;65998;46.256;7.534;2023-10-08T08:27:17;1016.80;;;883.90;;
43837;SDS011;65998;46.256;7.534;2023-10-08T08:29:42;976.73;;;850.90;;
43837;SDS011;65998;46.256;7.534;2023-10-08T08:32:08;963.45;;;835.83;;
43837;SDS011;65998;46.256;7.534;2023-10-08T08:34:33;979.10;;;856.20;;
43837;SDS011;65998;46.256;7.534;2023-10-08T08:36:59;982.27;;;854.50;;
43837;SDS011;65998;46.256;7.534;2023-10-08T08:39:25;976.38;;;847.38;;
43837;SDS011;65998;46.256;7.534;2023-10-08T08:41:50;985.53;;;850.20;;
43837;SDS011;65998;46.256;7.534;2023-10-08T08:44:18;988.63;;;851.22;;
43837;SDS011;65998;46.256;7.534;2023-10-08T08:46:44;995.75;;;853.38;;
43837;SDS011;65998;46.256;7.534;2023-10-08T08:49:11;992.60;;;849.40;;
43837;SDS011;65998;46.256;7.534;2023-10-08T08:51:37;987.87;;;847.00;;
43837;SDS011;65998;46.256;7.534;2023-10-08T08:54:03;983.97;;;841.22;;
43837;SDS011;65998;46.256;7.534;2023-10-08T08:56:30;1004.70;;;858.03;;
43837;SDS011;65998;46.256;7.534;2023-10-08T08:58:57;998.15;;;851.72;;
43837;SDS011;65998;46.256;7.534;2023-10-08T09:01:25;1012.67;;;863.00;;
43837;SDS011;65998;46.256;7.534;2023-10-08T09:03:50;1018.65;;;868.80;;
43837;SDS011;65998;46.256;7.534;2023-10-08T09:06:16;1013.40;;;859.37;;
43837;SDS011;65998;46.256;7.534;2023-10-08T09:08:42;1033.78;;;876.90;;
43837;SDS011;65998;46.256;7.534;2023-10-08T09:11:07;1034.37;;;871.97;;
43837;SDS011;65998;46.256;7.534;2023-10-08T09:13:33;1020.27;;;861.33;;
43837;SDS011;65998;46.256;7.534;2023-10-08T09:18:44;1027.55;;;866.83;;
43837;SDS011;65998;46.256;7.534;2023-10-08T09:21:15;1038.32;;;874.97;;
43837;SDS011;65998;46.256;7.534;2023-10-08T09:23:42;1043.95;;;879.53;;
43837;SDS011;65998;46.256;7.534;2023-10-08T09:26:09;1041.82;;;874.85;;
43837;SDS011;65998;46.256;7.534;2023-10-08T09:28:36;1035.83;;;870.30;;
43837;SDS011;65998;46.256;7.534;2023-10-08T09:31:02;1030.38;;;863.72;;
43837;SDS011;65998;46.256;7.534;2023-10-08T09:33:28;1026.80;;;859.65;;
43837;SDS011;65998;46.256;7.534;2023-10-08T09:35:54;1016.37;;;850.20;;
43837;SDS011;65998;46.256;7.534;2023-10-08T09:38:19;1018.10;;;852.60;;
43837;SDS011;65998;46.256;7.534;2023-10-08T09:40:45;1019.63;;;854.10;;
43837;SDS011;65998;46.256;7.534;2023-10-08T09:43:11;1014.75;;;847.45;;
43837;SDS011;65998;46.256;7.534;2023-10-08T09:45:38;1019.63;;;850.57;;
43837;SDS011;65998;46.256;7.534;2023-10-08T09:48:07;1012.95;;;847.10;;
43837;SDS011;65998;46.256;7.534;2023-10-08T09:50:36;1009.38;;;843.80;;
43837;SDS011;65998;46.256;7.534;2023-10-08T09:53:11;1003.95;;;839.58;;
43837;SDS011;65998;46.256;7.534;2023-10-08T09:55:37;1002.63;;;839.28;;
43837;SDS011;65998;46.256;7.534;2023-10-08T09:58:09;1000.27;;;839.40;;
43837;SDS011;65998;46.256;7.534;2023-10-08T10:00:36;998.85;;;835.35;;
43837;SDS011;65998;46.256;7.534;2023-10-08T10:03:02;1000.63;;;836.20;;
43837;SDS011;65998;46.256;7.534;2023-10-08T10:05:29;1001.72;;;841.38;;
43837;SDS011;65998;46.256;7.534;2023-10-08T10:07:57;996.27;;;836.10;;
43837;SDS011;65998;46.256;7.534;2023-10-08T10:10:30;997.58;;;837.28;;
43837;SDS011;65998;46.256;7.534;2023-10-08T10:12:57;994.53;;;835.33;;
43837;SDS011;65998;46.256;7.534;2023-10-08T10:15:24;995.45;;;833.22;;
43837;SDS011;65998;46.256;7.534;2023-10-08T10:17:49;991.17;;;833.57;;
43837;SDS011;65998;46.256;7.534;2023-10-08T10:20:16;988.72;;;832.33;;
43837;SDS011;65998;46.256;7.534;2023-10-08T10:22:42;987.30;;;832.77;;
43837;SDS011;65998;46.256;7.534;2023-10-08T10:25:08;985.80;;;832.08;;
43837;SDS011;65998;46.256;7.534;2023-10-08T10:27:34;983.13;;;831.07;;
43837;SDS011;65998;46.256;7.534;2023-10-08T10:30:03;987.72;;;832.97;;
43837;SDS011;65998;46.256;7.534;2023-10-08T10:32:29;984.17;;;829.38;;
43837;SDS011;65998;46.256;7.534;2023-10-08T10:34:54;1000.00;;;835.57;;
43837;SDS011;65998;46.256;7.534;2023-10-08T10:37:20;1005.00;;;837.13;;
43837;SDS011;65998;46.256;7.534;2023-10-08T10:39:52;1004.83;;;838.05;;
43837;SDS011;65998;46.256;7.534;2023-10-08T10:42:19;1008.63;;;839.00;;
43837;SDS011;65998;46.256;7.534;2023-10-08T10:44:45;1005.00;;;839.60;;
43837;SDS011;65998;46.256;7.534;2023-10-08T10:47:10;1003.08;;;838.05;;
43837;SDS011;65998;46.256;7.534;2023-10-08T10:49:36;1003.13;;;835.33;;
43837;SDS011;65998;46.256;7.534;2023-10-08T10:52:01;1010.60;;;839.13;;
43837;SDS011;65998;46.256;7.534;2023-10-08T10:54:27;1012.35;;;842.70;;
43837;SDS011;65998;46.256;7.534;2023-10-08T10:56:53;1010.43;;;841.93;;
43837;SDS011;65998;46.256;7.534;2023-10-08T10:59:19;1009.33;;;839.95;;
43837;SDS011;65998;46.256;7.534;2023-10-08T11:01:45;1012.83;;;841.27;;
43837;SDS011;65998;46.256;7.534;2023-10-08T11:04:11;1008.80;;;836.28;;
43837;SDS011;65998;46.256;7.534;2023-10-08T11:06:36;1008.40;;;839.17;;
43837;SDS011;65998;46.256;7.534;2023-10-08T11:09:02;1011.70;;;839.55;;
43837;SDS011;65998;46.256;7.534;2023-10-08T11:11:28;1016.10;;;840.47;;
43837;SDS011;65998;46.256;7.534;2023-10-08T11:13:58;1016.83;;;841.33;;
43837;SDS011;65998;46.256;7.534;2023-10-08T11:16:24;1020.25;;;843.30;;
43837;SDS011;65998;46.256;7.534;2023-10-08T11:18:50;1015.20;;;841.03;;
43837;SDS011;65998;46.256;7.534;2023-10-08T11:21:16;1014.40;;;839.35;;
43837;SDS011;65998;46.256;7.534;2023-10-08T11:23:43;1013.40;;;836.97;;
43837;SDS011;65998;46.256;7.534;2023-10-08T11:26:12;1016.40;;;842.70;;
43837;SDS011;65998;46.256;7.534;2023-10-08T11:28:38;1025.30;;;845.83;;
43837;SDS011;65998;46.256;7.534;2023-10-08T11:31:04;1031.65;;;850.15;;
43837;SDS011;65998;46.256;7.534;2023-10-08T11:33:30;1036.30;;;851.37;;
43837;SDS011;65998;46.256;7.534;2023-10-08T11:35:56;1033.13;;;848.33;;
43837;SDS011;65998;46.256;7.534;2023-10-08T11:38:23;1031.32;;;851.40;;
43837;SDS011;65998;46.256;7.534;2023-10-08T11:40:48;1033.33;;;849.43;;
43837;SDS011;65998;46.256;7.534;2023-10-08T11:43:14;1035.43;;;853.33;;
43837;SDS011;65998;46.256;7.534;2023-10-08T11:45:40;1044.93;;;855.28;;
43837;SDS011;65998;46.256;7.534;2023-10-08T11:48:08;1048.38;;;857.83;;
43837;SDS011;65998;46.256;7.534;2023-10-08T11:50:34;1052.33;;;855.80;;
43837;SDS011;65998;46.256;7.534;2023-10-08T11:53:03;1048.73;;;856.70;;
43837;SDS011;65998;46.256;7.534;2023-10-08T11:55:29;1045.93;;;856.45;;
43837;SDS011;65998;46.256;7.534;2023-10-08T11:57:55;1051.80;;;861.90;;
43837;SDS011;65998;46.256;7.534;2023-10-08T12:00:21;1053.10;;;860.33;;
43837;SDS011;65998;46.256;7.534;2023-10-08T12:02:47;1052.00;;;861.22;;
43837;SDS011;65998;46.256;7.534;2023-10-08T12:05:13;1057.45;;;861.85;;
43837;SDS011;65998;46.256;7.534;2023-10-08T12:07:39;1056.07;;;860.20;;
43837;SDS011;65998;46.256;7.534;2023-10-08T12:10:05;1057.53;;;862.33;;
43837;SDS011;65998;46.256;7.534;2023-10-08T12:12:31;1059.13;;;860.83;;
43837;SDS011;65998;46.256;7.534;2023-10-08T12:14:56;1060.47;;;864.03;;
43837;SDS011;65998;46.256;7.534;2023-10-08T12:17:22;1064.07;;;868.60;;
43837;SDS011;65998;46.256;7.534;2023-10-08T12:19:48;1058.63;;;864.35;;
43837;SDS011;65998;46.256;7.534;2023-10-08T12:22:13;1059.57;;;862.23;;
43837;SDS011;65998;46.256;7.534;2023-10-08T12:24:39;1064.13;;;867.27;;
43837;SDS011;65998;46.256;7.534;2023-10-08T12:27:04;1067.45;;;864.55;;
43837;SDS011;65998;46.256;7.534;2023-10-08T12:29:30;1063.13;;;861.27;;
43837;SDS011;65998;46.256;7.534;2023-10-08T12:31:55;1064.13;;;869.45;;
43837;SDS011;65998;46.256;7.534;2023-10-08T12:34:21;1065.73;;;869.03;;
43837;SDS011;65998;46.256;7.534;2023-10-08T12:36:47;1068.87;;;868.53;;
43837;SDS011;65998;46.256;7.534;2023-10-08T12:39:12;1069.13;;;866.83;;
43837;SDS011;65998;46.256;7.534;2023-10-08T12:41:38;1067.07;;;865.80;;
43837;SDS011;65998;46.256;7.534;2023-10-08T12:44:03;1067.28;;;863.13;;
43837;SDS011;65998;46.256;7.534;2023-10-08T12:46:29;1072.57;;;867.87;;
43837;SDS011;65998;46.256;7.534;2023-10-08T12:48:55;1070.60;;;865.35;;
43837;SDS011;65998;46.256;7.534;2023-10-08T12:51:21;1072.80;;;867.67;;
43837;SDS011;65998;46.256;7.534;2023-10-08T12:53:47;1078.32;;;873.17;;
43837;SDS011;65998;46.256;7.534;2023-10-08T12:56:13;1077.10;;;866.63;;
43837;SDS011;65998;46.256;7.534;2023-10-08T12:58:38;1075.93;;;866.50;;
43837;SDS011;65998;46.256;7.534;2023-10-08T13:01:04;1082.63;;;869.30;;
43837;SDS011;65998;46.256;7.534;2023-10-08T13:03:30;1082.47;;;870.65;;
43837;SDS011;65998;46.256;7.534;2023-10-08T13:05:56;1080.47;;;868.80;;
43837;SDS011;65998;46.256;7.534;2023-10-08T13:08:22;1081.18;;;869.22;;
43837;SDS011;65998;46.256;7.534;2023-10-08T13:10:48;1086.07;;;873.35;;
43837;SDS011;65998;46.256;7.534;2023-10-08T13:13:13;1087.03;;;871.47;;
43837;SDS011;65998;46.256;7.534;2023-10-08T13:15:39;1081.13;;;867.50;;
43837;SDS011;65998;46.256;7.534;2023-10-08T13:18:05;1079.63;;;866.03;;
43837;SDS011;65998;46.256;7.534;2023-10-08T13:20:31;1083.70;;;868.70;;
43837;SDS011;65998;46.256;7.534;2023-10-08T13:22:56;1088.53;;;870.40;;
43837;SDS011;65998;46.256;7.534;2023-10-08T13:25:22;1085.65;;;872.08;;
43837;SDS011;65998;46.256;7.534;2023-10-08T13:27:47;1091.17;;;871.30;;
43837;SDS011;65998;46.256;7.534;2023-10-08T13:30:13;1087.30;;;867.60;;
43837;SDS011;65998;46.256;7.534;2023-10-08T13:32:42;1087.63;;;870.92;;
43837;SDS011;65998;46.256;7.534;2023-10-08T13:35:08;1091.20;;;872.65;;
43837;SDS011;65998;46.256;7.534;2023-10-08T13:37:34;1088.88;;;870.08;;
43837;SDS011;65998;46.256;7.534;2023-10-08T13:40:00;1090.77;;;870.20;;
43837;SDS011;65998;46.256;7.534;2023-10-08T13:42:26;1090.80;;;871.30;;
43837;SDS011;65998;46.256;7.534;2023-10-08T13:44:53;1095.35;;;874.22;;
43837;SDS011;65998;46.256;7.534;2023-10-08T13:47:19;1092.70;;;871.85;;
43837;SDS011;65998;46.256;7.534;2023-10-08T13:49:46;1095.95;;;870.38;;
43837;SDS011;65998;46.256;7.534;2023-10-08T13:52:12;1097.37;;;872.47;;
43837;SDS011;65998;46.256;7.534;2023-10-08T13:54:37;1102.88;;;876.05;;
43837;SDS011;65998;46.256;7.534;2023-10-08T13:57:03;1099.53;;;872.23;;
43837;SDS011;65998;46.256;7.534;2023-10-08T13:59:29;1099.17;;;871.87;;
43837;SDS011;65998;46.256;7.534;2023-10-08T14:01:54;1100.28;;;869.70;;
43837;SDS011;65998;46.256;7.534;2023-10-08T14:04:21;1108.90;;;870.73;;
43837;SDS011;65998;46.256;7.534;2023-10-08T14:06:47;1110.43;;;870.65;;
43837;SDS011;65998;46.256;7.534;2023-10-08T14:09:13;1119.63;;;872.78;;
43837;SDS011;65998;46.256;7.534;2023-10-08T14:11:39;1124.22;;;871.30;;
43837;SDS011;65998;46.256;7.534;2023-10-08T14:14:05;1132.53;;;872.50;;
43837;SDS011;65998;46.256;7.534;2023-10-08T14:16:30;1129.80;;;870.70;;
43837;SDS011;65998;46.256;7.534;2023-10-08T14:18:56;1128.75;;;870.45;;
43837;SDS011;65998;46.256;7.534;2023-10-08T14:21:22;1137.90;;;874.37;;
43837;SDS011;65998;46.256;7.534;2023-10-08T14:23:48;1153.97;;;879.70;;
43837;SDS011;65998;46.256;7.534;2023-10-08T14:26:14;1144.27;;;872.23;;
43837;SDS011;65998;46.256;7.534;2023-10-08T14:28:40;1152.80;;;879.05;;
43837;SDS011;65998;46.256;7.534;2023-10-08T14:31:09;1149.27;;;872.97;;
43837;SDS011;65998;46.256;7.534;2023-10-08T14:33:35;1149.70;;;877.20;;
43837;SDS011;65998;46.256;7.534;2023-10-08T14:36:00;1151.97;;;872.73;;
43837;SDS011;65998;46.256;7.534;2023-10-08T14:38:26;1137.80;;;865.78;;
43837;SDS011;65998;46.256;7.534;2023-10-08T14:40:51;1133.53;;;863.90;;
43837;SDS011;65998;46.256;7.534;2023-10-08T14:43:17;1130.63;;;860.67;;
43837;SDS011;65998;46.256;7.534;2023-10-08T14:45:43;1130.93;;;863.13;;
43837;SDS011;65998;46.256;7.534;2023-10-08T14:48:08;1127.30;;;860.43;;
43837;SDS011;65998;46.256;7.534;2023-10-08T14:50:35;1127.50;;;861.67;;
43837;SDS011;65998;46.256;7.534;2023-10-08T14:53:00;1129.63;;;861.73;;
43837;SDS011;65998;46.256;7.534;2023-10-08T14:55:26;1129.38;;;864.63;;
43837;SDS011;65998;46.256;7.534;2023-10-08T14:57:52;1126.53;;;859.10;;
43837;SDS011;65998;46.256;7.534;2023-10-08T15:00:17;1129.90;;;863.00;;
43837;SDS011;65998;46.256;7.534;2023-10-08T15:02:43;1134.97;;;863.20;;
43837;SDS011;65998;46.256;7.534;2023-10-08T15:05:08;1136.40;;;865.22;;
43837;SDS011;65998;46.256;7.534;2023-10-08T15:07:37;1137.00;;;865.17;;
43837;SDS011;65998;46.256;7.534;2023-10-08T15:10:02;1136.07;;;866.10;;
43837;SDS011;65998;46.256;7.534;2023-10-08T15:12:28;1137.33;;;864.67;;
43837;SDS011;65998;46.256;7.534;2023-10-08T15:14:54;1134.68;;;862.63;;
43837;SDS011;65998;46.256;7.534;2023-10-08T15:17:21;1139.80;;;866.60;;
43837;SDS011;65998;46.256;7.534;2023-10-08T15:19:47;1130.40;;;861.08;;
43837;SDS011;65998;46.256;7.534;2023-10-08T15:22:13;1137.80;;;865.75;;
43837;SDS011;65998;46.256;7.534;2023-10-08T15:24:40;1139.90;;;866.35;;
43837;SDS011;65998;46.256;7.534;2023-10-08T15:27:06;1137.87;;;867.20;;
43837;SDS011;65998;46.256;7.534;2023-10-08T15:29:32;1135.72;;;866.72;;
43837;SDS011;65998;46.256;7.534;2023-10-08T15:31:57;1132.63;;;862.97;;
43837;SDS011;65998;46.256;7.534;2023-10-08T15:34:23;1152.85;;;875.75;;
43837;SDS011;65998;46.256;7.534;2023-10-08T15:36:49;1155.73;;;875.50;;
43837;SDS011;65998;46.256;7.534;2023-10-08T15:39:15;1154.40;;;877.75;;
43837;SDS011;65998;46.256;7.534;2023-10-08T15:41:41;1153.95;;;876.20;;
43837;SDS011;65998;46.256;7.534;2023-10-08T15:44:06;1155.00;;;878.30;;
43837;SDS011;65998;46.256;7.534;2023-10-08T15:46:32;1153.80;;;876.17;;
43837;SDS011;65998;46.256;7.534;2023-10-08T15:48:57;1153.70;;;878.25;;
43837;SDS011;65998;46.256;7.534;2023-10-08T15:51:23;1149.70;;;876.17;;
43837;SDS011;65998;46.256;7.534;2023-10-08T15:53:48;1149.80;;;878.67;;
43837;SDS011;65998;46.256;7.534;2023-10-08T15:56:14;1152.23;;;877.63;;
43837;SDS011;65998;46.256;7.534;2023-10-08T15:58:40;1144.63;;;876.07;;
43837;SDS011;65998;46.256;7.534;2023-10-08T16:01:05;1147.55;;;876.58;;
43837;SDS011;65998;46.256;7.534;2023-10-08T16:03:31;1141.50;;;873.67;;
43837;SDS011;65998;46.256;7.534;2023-10-08T16:05:56;1143.53;;;873.37;;
43837;SDS011;65998;46.256;7.534;2023-10-08T16:08:22;1139.80;;;874.10;;
43837;SDS011;65998;46.256;7.534;2023-10-08T16:10:49;1139.23;;;871.47;;
43837;SDS011;65998;46.256;7.534;2023-10-08T16:13:14;1134.30;;;870.53;;
43837;SDS011;65998;46.256;7.534;2023-10-08T16:15:40;1137.80;;;873.63;;
43837;SDS011;65998;46.256;7.534;2023-10-08T16:18:07;1136.50;;;874.10;;
43837;SDS011;65998;46.256;7.534;2023-10-08T16:20:32;1137.47;;;875.35;;
43837;SDS011;65998;46.256;7.534;2023-10-08T16:22:58;1132.27;;;873.73;;
43837;SDS011;65998;46.256;7.534;2023-10-08T16:25:24;1132.65;;;872.92;;
43837;SDS011;65998;46.256;7.534;2023-10-08T16:27:50;1134.87;;;872.80;;
43837;SDS011;65998;46.256;7.534;2023-10-08T16:30:18;1133.22;;;872.97;;
43837;SDS011;65998;46.256;7.534;2023-10-08T16:32:49;1132.80;;;873.77;;
43837;SDS011;65998;46.256;7.534;2023-10-08T16:35:15;1127.22;;;870.50;;
43837;SDS011;65998;46.256;7.534;2023-10-08T16:37:41;1125.80;;;869.07;;
43837;SDS011;65998;46.256;7.534;2023-10-08T16:40:07;1124.18;;;870.92;;
43837;SDS011;65998;46.256;7.534;2023-10-08T16:42:34;1120.22;;;866.58;;
43837;SDS011;65998;46.256;7.534;2023-10-08T16:44:59;1126.07;;;871.53;;
43837;SDS011;65998;46.256;7.534;2023-10-08T16:47:25;1122.67;;;870.57;;
43837;SDS011;65998;46.256;7.534;2023-10-08T16:49:50;1123.70;;;870.37;;
43837;SDS011;65998;46.256;7.534;2023-10-08T16:52:16;1117.75;;;868.33;;
43837;SDS011;65998;46.256;7.534;2023-10-08T16:54:42;1118.00;;;869.37;;
43837;SDS011;65998;46.256;7.534;2023-10-08T16:57:08;1115.85;;;868.30;;
43837;SDS011;65998;46.256;7.534;2023-10-08T16:59:35;1116.63;;;868.73;;
43837;SDS011;65998;46.256;7.534;2023-10-08T17:02:00;1118.93;;;870.05;;
43837;SDS011;65998;46.256;7.534;2023-10-08T17:04:26;1117.70;;;871.03;;
43837;SDS011;65998;46.256;7.534;2023-10-08T17:06:51;1113.13;;;869.77;;
43837;SDS011;65998;46.256;7.534;2023-10-08T17:09:17;1116.10;;;869.50;;
43837;SDS011;65998;46.256;7.534;2023-10-08T17:11:42;1117.35;;;871.95;;
43837;SDS011;65998;46.256;7.534;2023-10-08T17:14:08;1113.83;;;872.33;;
43837;SDS011;65998;46.256;7.534;2023-10-08T17:16:34;1114.45;;;870.90;;
43837;SDS011;65998;46.256;7.534;2023-10-08T17:19:00;1115.23;;;872.00;;
43837;SDS011;65998;46.256;7.534;2023-10-08T17:21:25;1114.73;;;872.40;;
43837;SDS011;65998;46.256;7.534;2023-10-08T17:23:51;1121.07;;;880.13;;
43837;SDS011;65998;46.256;7.534;2023-10-08T17:26:16;1126.77;;;881.67;;
43837;SDS011;65998;46.256;7.534;2023-10-08T17:28:42;1130.53;;;885.65;;
43837;SDS011;65998;46.256;7.534;2023-10-08T17:31:07;1126.90;;;881.47;;
43837;SDS011;65998;46.256;7.534;2023-10-08T17:33:33;1121.10;;;880.50;;
43837;SDS011;65998;46.256;7.534;2023-10-08T17:35:58;1119.05;;;878.95;;
43837;SDS011;65998;46.256;7.534;2023-10-08T17:38:24;1121.27;;;880.40;;
43837;SDS011;65998;46.256;7.534;2023-10-08T17:40:49;1119.47;;;880.70;;
43837;SDS011;65998;46.256;7.534;2023-10-08T17:43:15;1117.68;;;880.28;;
43837;SDS011;65998;46.256;7.534;2023-10-08T17:45:41;1120.73;;;878.10;;
43837;SDS011;65998;46.256;7.534;2023-10-08T17:48:09;1117.10;;;880.70;;
43837;SDS011;65998;46.256;7.534;2023-10-08T17:50:35;1117.30;;;878.67;;
43837;SDS011;65998;46.256;7.534;2023-10-08T17:53:00;1113.75;;;879.53;;
43837;SDS011;65998;46.256;7.534;2023-10-08T17:55:26;1121.03;;;880.67;;
43837;SDS011;65998;46.256;7.534;2023-10-08T17:57:52;1117.40;;;883.53;;
43837;SDS011;65998;46.256;7.534;2023-10-08T18:00:17;1119.37;;;882.40;;
43837;SDS011;65998;46.256;7.534;2023-10-08T18:02:43;1117.18;;;881.25;;
43837;SDS011;65998;46.256;7.534;2023-10-08T18:05:09;1107.20;;;874.23;;
43837;SDS011;65998;46.256;7.534;2023-10-08T18:07:35;1116.38;;;878.58;;
43837;SDS011;65998;46.256;7.534;2023-10-08T18:10:01;1113.33;;;876.43;;
43837;SDS011;65998;46.256;7.534;2023-10-08T18:12:26;1110.57;;;876.10;;
43837;SDS011;65998;46.256;7.534;2023-10-08T18:14:52;1112.33;;;875.80;;
43837;SDS011;65998;46.256;7.534;2023-10-08T18:17:17;1110.72;;;875.00;;
43837;SDS011;65998;46.256;7.534;2023-10-08T18:19:43;1108.20;;;876.97;;
43837;SDS011;65998;46.256;7.534;2023-10-08T18:22:09;1110.13;;;875.53;;
43837;SDS011;65998;46.256;7.534;2023-10-08T18:24:34;1106.70;;;878.67;;
43837;SDS011;65998;46.256;7.534;2023-10-08T18:27:00;1108.50;;;877.43;;
43837;SDS011;65998;46.256;7.534;2023-10-08T18:29:27;1111.53;;;879.70;;
43837;SDS011;65998;46.256;7.534;2023-10-08T18:31:53;1110.80;;;876.97;;
43837;SDS011;65998;46.256;7.534;2023-10-08T18:34:18;1109.63;;;874.80;;
43837;SDS011;65998;46.256;7.534;2023-10-08T18:36:44;1110.15;;;878.35;;
43837;SDS011;65998;46.256;7.534;2023-10-08T18:39:10;1106.40;;;873.83;;
43837;SDS011;65998;46.256;7.534;2023-10-08T18:41:35;1109.30;;;876.10;;
43837;SDS011;65998;46.256;7.534;2023-10-08T18:44:02;1108.67;;;876.67;;
43837;SDS011;65998;46.256;7.534;2023-10-08T18:46:28;1112.55;;;881.70;;
43837;SDS011;65998;46.256;7.534;2023-10-08T18:48:53;1106.33;;;875.00;;
43837;SDS011;65998;46.256;7.534;2023-10-08T18:51:19;1111.10;;;878.83;;
43837;SDS011;65998;46.256;7.534;2023-10-08T18:53:45;1110.83;;;878.57;;
43837;SDS011;65998;46.256;7.534;2023-10-08T18:56:11;1109.90;;;880.22;;
43837;SDS011;65998;46.256;7.534;2023-10-08T18:58:38;1103.40;;;875.23;;
43837;SDS011;65998;46.256;7.534;2023-10-08T19:01:04;1101.25;;;873.75;;
43837;SDS011;65998;46.256;7.534;2023-10-08T19:03:34;1100.57;;;873.95;;
43837;SDS011;65998;46.256;7.534;2023-10-08T19:06:01;1106.20;;;878.25;;
43837;SDS011;65998;46.256;7.534;2023-10-08T19:08:27;1099.63;;;876.87;;
43837;SDS011;65998;46.256;7.534;2023-10-08T19:10:53;1091.47;;;873.00;;
43837;SDS011;65998;46.256;7.534;2023-10-08T19:13:19;1092.67;;;873.27;;
43837;SDS011;65998;46.256;7.534;2023-10-08T19:15:44;1085.72;;;869.35;;
43837;SDS011;65998;46.256;7.534;2023-10-08T19:18:10;1085.93;;;866.83;;
43837;SDS011;65998;46.256;7.534;2023-10-08T19:20:36;1086.55;;;869.33;;
43837;SDS011;65998;46.256;7.534;2023-10-08T19:23:03;1085.50;;;871.08;;
43837;SDS011;65998;46.256;7.534;2023-10-08T19:25:29;1083.25;;;869.42;;
43837;SDS011;65998;46.256;7.534;2023-10-08T19:27:55;1077.30;;;866.23;;
43837;SDS011;65998;46.256;7.534;2023-10-08T19:30:20;1085.00;;;871.72;;
43837;SDS011;65998;46.256;7.534;2023-10-08T19:32:46;1084.17;;;875.53;;
43837;SDS011;65998;46.256;7.534;2023-10-08T19:35:12;1086.65;;;872.15;;
43837;SDS011;65998;46.256;7.534;2023-10-08T19:37:37;1081.63;;;871.00;;
43837;SDS011;65998;46.256;7.534;2023-10-08T19:40:04;1074.28;;;866.10;;
43837;SDS011;65998;46.256;7.534;2023-10-08T19:42:31;1074.70;;;867.33;;
43837;SDS011;65998;46.256;7.534;2023-10-08T19:44:56;1075.00;;;872.33;;
43837;SDS011;65998;46.256;7.534;2023-10-08T19:47:22;1072.23;;;872.17;;
43837;SDS011;65998;46.256;7.534;2023-10-08T19:49:48;1068.20;;;866.50;;
43837;SDS011;65998;46.256;7.534;2023-10-08T19:52:13;1067.47;;;872.57;;
43837;SDS011;65998;46.256;7.534;2023-10-08T19:54:39;1067.35;;;860.20;;
43837;SDS011;65998;46.256;7.534;2023-10-08T19:57:04;1066.30;;;864.27;;
43837;SDS011;65998;46.256;7.534;2023-10-08T19:59:30;1060.38;;;867.63;;
43837;SDS011;65998;46.256;7.534;2023-10-08T20:01:55;1060.07;;;862.37;;
43837;SDS011;65998;46.256;7.534;2023-10-08T20:04:21;1063.50;;;868.50;;
43837;SDS011;65998;46.256;7.534;2023-10-08T20:06:49;1059.35;;;871.63;;
43837;SDS011;65998;46.256;7.534;2023-10-08T20:09:33;1063.67;;;867.13;;
43837;SDS011;65998;46.256;7.534;2023-10-08T20:12:01;1060.53;;;868.08;;
43837;SDS011;65998;46.256;7.534;2023-10-08T20:14:27;1063.32;;;862.92;;
43837;SDS011;65998;46.256;7.534;2023-10-08T20:16:53;1065.63;;;866.03;;
43837;SDS011;65998;46.256;7.534;2023-10-08T20:19:18;1058.30;;;863.53;;
43837;SDS011;65998;46.256;7.534;2023-10-08T20:21:44;1063.60;;;867.63;;
43837;SDS011;65998;46.256;7.534;2023-10-08T20:24:09;1056.70;;;867.95;;
43837;SDS011;65998;46.256;7.534;2023-10-08T20:26:35;1066.87;;;870.47;;
43837;SDS011;65998;46.256;7.534;2023-10-08T20:29:02;1056.10;;;865.73;;
43837;SDS011;65998;46.256;7.534;2023-10-08T20:31:29;1057.05;;;866.50;;
43837;SDS011;65998;46.256;7.534;2023-10-08T20:33:54;1061.82;;;870.22;;
43837;SDS011;65998;46.256;7.534;2023-10-08T20:36:20;1058.05;;;866.33;;
43837;SDS011;65998;46.256;7.534;2023-10-08T20:38:46;1059.13;;;866.57;;
43837;SDS011;65998;46.256;7.534;2023-10-08T20:41:18;1055.30;;;866.03;;
43837;SDS011;65998;46.256;7.534;2023-10-08T20:43:44;1056.68;;;867.15;;
43837;SDS011;65998;46.256;7.534;2023-10-08T20:46:16;1057.00;;;862.83;;